Time;durP1;ratioP1;P1;durP2;ratioP2;P2;SDS_P1;SDS_P2;PMS_P1;PMS_P2;Temp;Humidity;BMP_temperature;BMP_pressure;BME280_temperature;BME280_humidity;BME280_pressure;Samples;Min_cycle;Max_cycle;Signal;HPM_P1;HPM_P2
2023/06/06 00:00:50;;;;;;;12.20;9.37;;;;;;;13.29;85.72;101858.31;5283076;28;20033;-68
2023/06/06 00:03:22;;;;;;;14.23;9.55;;;;;;;13.26;85.57;101858.31;5284562;28;20032;-67
2023/06/06 00:05:53;;;;;;;12.32;8.98;;;;;;;13.22;85.79;101856.63;5284312;28;20036;-67
2023/06/06 00:08:28;;;;;;;11.73;9.43;;;;;;;13.22;85.85;101861.00;5283850;28;20115;-67
2023/06/06 00:11:00;;;;;;;13.85;9.30;;;;;;;13.10;86.15;101856.69;5282835;28;20033;-66
2023/06/06 00:13:32;;;;;;;15.05;9.73;;;;;;;13.08;86.41;101861.06;5284224;28;20482;-67
2023/06/06 00:16:04;;;;;;;10.63;9.38;;;;;;;13.00;86.32;101862.88;5282311;28;20039;-68
2023/06/06 00:18:36;;;;;;;13.23;9.02;;;;;;;12.88;86.66;101856.81;5283427;28;20442;-68
2023/06/06 00:21:08;;;;;;;14.05;9.93;;;;;;;12.89;86.73;101849.84;5284350;28;20039;-68
2023/06/06 00:23:40;;;;;;;14.10;9.18;;;;;;;12.84;87.08;101855.09;5266035;28;20028;-68
2023/06/06 00:26:12;;;;;;;11.20;9.30;;;;;;;12.77;87.10;101851.63;5283901;28;20468;-67
2023/06/06 00:28:43;;;;;;;14.07;9.20;;;;;;;12.85;87.01;101858.59;5283823;28;20267;-66
2023/06/06 00:31:14;;;;;;;12.10;8.97;;;;;;;12.71;87.29;101856.91;5283936;28;20052;-68
2023/06/06 00:33:46;;;;;;;9.77;8.77;;;;;;;12.72;87.41;101849.94;5283721;28;20064;-67
2023/06/06 00:36:17;;;;;;;16.37;10.67;;;;;;;12.62;87.56;101856.06;5283672;28;20032;-67
2023/06/06 00:38:50;;;;;;;13.13;9.13;;;;;;;12.57;88.20;101856.09;5283888;28;20044;-67
2023/06/06 00:41:21;;;;;;;14.90;9.85;;;;;;;12.42;89.05;101853.53;5283796;28;20060;-67
2023/06/06 00:43:53;;;;;;;13.07;9.10;;;;;;;12.50;88.67;101854.38;5282847;28;20108;-68
2023/06/06 00:46:25;;;;;;;13.07;9.52;;;;;;;12.46;88.63;101852.63;5282670;28;20064;-67
2023/06/06 00:48:58;;;;;;;12.33;9.53;;;;;;;12.37;89.17;101851.78;5283317;28;20025;-67
2023/06/06 00:51:30;;;;;;;14.13;10.35;;;;;;;12.35;89.57;101860.53;5283646;28;20037;-67
2023/06/06 00:54:02;;;;;;;12.85;9.52;;;;;;;12.21;89.52;101847.50;5282341;28;20108;-66
2023/06/06 00:56:36;;;;;;;12.70;9.17;;;;;;;12.24;89.85;101851.84;5282093;28;20040;-66
2023/06/06 00:59:07;;;;;;;15.35;9.77;;;;;;;12.20;89.74;101856.19;5282438;28;20027;-71
2023/06/06 01:01:41;;;;;;;14.03;10.00;;;;;;;12.19;90.48;101854.47;5282167;28;20032;-67
2023/06/06 01:04:12;;;;;;;13.05;9.80;;;;;;;12.19;90.14;101854.47;5283037;28;20039;-67
2023/06/06 01:06:44;;;;;;;12.73;9.47;;;;;;;12.08;90.74;101851.88;5282873;28;20033;-67
2023/06/06 01:09:16;;;;;;;15.17;9.90;;;;;;;12.04;90.71;101856.25;5282745;28;20509;-68
2023/06/06 01:12:14;;;;;;;13.18;10.50;;;;;;;12.00;91.32;101853.63;5282992;28;20029;-66
2023/06/06 01:14:52;;;;;;;12.82;9.45;;;;;;;12.00;91.18;101851.88;5283019;28;20029;-67
2023/06/06 01:17:27;;;;;;;13.27;9.32;;;;;;;11.92;91.16;101856.25;5272725;28;20025;-67
2023/06/06 01:19:59;;;;;;;13.55;9.82;;;;;;;11.84;91.72;101851.00;5274840;28;20119;-66
2023/06/06 01:22:32;;;;;;;12.07;9.95;;;;;;;11.82;92.10;101854.50;5281915;28;20041;-66
2023/06/06 01:25:03;;;;;;;;;;;;;;;11.90;90.46;101852.75;5281563;28;20464;-67
2023/06/06 01:27:35;;;;;;;14.68;10.30;;;;;;;11.82;91.82;101851.88;5282458;28;19923;-67
2023/06/06 01:44:08;;;;;;;14.90;10.15;;;;;;;11.49;93.29;101851.91;6021958;23;20023;-66
2023/06/06 01:46:40;;;;;;;13.07;9.63;;;;;;;11.40;93.69;101853.59;5119772;29;20380;-65
2023/06/06 01:49:13;;;;;;;12.27;9.68;;;;;;;11.31;94.04;101852.72;5112074;29;20088;-65
2023/06/06 01:51:44;;;;;;;13.55;9.65;;;;;;;11.32;94.16;101854.47;5100412;29;20085;-66
2023/06/06 01:54:15;;;;;;;12.47;9.67;;;;;;;11.28;94.54;101857.06;5087666;29;20080;-66
2023/06/06 01:56:47;;;;;;;16.83;9.90;;;;;;;11.23;94.88;101849.22;5084750;29;20036;-66
2023/06/06 01:59:18;;;;;;;14.47;9.93;;;;;;;11.19;95.11;101850.13;5088979;29;20527;-66
2023/06/06 02:01:49;;;;;;;13.87;9.77;;;;;;;11.12;94.94;101851.84;5103902;29;20519;-66
2023/06/06 02:04:21;;;;;;;17.17;10.73;;;;;;;11.07;95.31;101853.56;5103240;29;20169;-66
2023/06/06 02:06:52;;;;;;;18.60;10.70;;;;;;;11.05;95.59;101851.81;5103923;29;20036;-65
2023/06/06 02:09:24;;;;;;;14.80;9.87;;;;;;;11.04;96.08;101853.53;5103780;29;20060;-66
2023/06/06 02:11:55;;;;;;;12.70;10.47;;;;;;;10.99;95.66;101847.44;5103731;29;20505;-66
2023/06/06 02:14:26;;;;;;;16.10;11.27;;;;;;;10.91;96.26;101852.63;5103776;29;20039;-65
2023/06/06 02:16:58;;;;;;;12.97;10.03;;;;;;;10.83;96.29;101850.88;5103870;29;20472;-66
2023/06/06 02:19:32;;;;;;;14.83;10.43;;;;;;;10.79;96.96;101852.63;5103431;29;20080;-66
2023/06/06 02:22:04;;;;;;;14.05;10.18;;;;;;;10.78;96.96;101856.09;5117947;29;20032;-67
2023/06/06 02:27:16;;;;;;;13.60;9.57;;;;;;;10.76;97.34;101848.25;5249179;23;20060;-66
2023/06/06 02:29:48;;;;;;;16.23;10.13;;;;;;;10.85;97.12;101855.25;5122856;29;20085;-67
2023/06/06 02:32:20;;;;;;;15.00;10.30;;;;;;;10.67;97.35;101858.63;5122742;29;20073;-67
2023/06/06 02:34:51;;;;;;;15.23;10.88;;;;;;;10.61;97.62;101856.03;5122563;29;20033;-67
2023/06/06 02:37:23;;;;;;;14.50;10.43;;;;;;;10.64;97.74;101855.16;5122905;29;20036;-67
2023/06/06 02:39:54;;;;;;;15.07;11.23;;;;;;;10.57;97.76;101851.66;5122757;29;20368;-67
2023/06/06 02:42:26;;;;;;;11.37;9.10;;;;;;;10.56;97.95;101850.78;5123017;29;20033;-66
2023/06/06 03:01:30;;;;;;;12.02;9.88;;;;;;;10.30;98.77;101855.81;5398320;23;20068;-68
2023/06/06 03:04:02;;;;;;;;;;;;;;;10.34;97.97;101864.59;5122472;29;20144;-74
2023/06/06 03:06:36;;;;;;;12.93;9.85;;;;;;;10.17;98.84;101859.22;5121721;29;20347;-73
2023/06/06 03:09:09;;;;;;;17.55;11.20;;;;;;;10.20;99.58;101856.66;5121927;29;20144;-73
2023/06/06 03:11:40;;;;;;;14.38;10.68;;;;;;;10.11;99.70;101860.06;5122671;29;20068;-74
2023/06/06 03:14:12;;;;;;;16.80;11.10;;;;;;;10.15;99.80;101868.78;5121463;29;20111;-73
2023/06/06 03:16:43;;;;;;;14.70;10.57;;;;;;;10.08;99.85;101867.88;5122528;29;20047;-73
2023/06/06 03:19:14;;;;;;;14.43;10.73;;;;;;;10.01;100.00;101856.53;5121371;29;20063;-74
2023/06/06 03:21:46;;;;;;;14.23;10.10;;;;;;;9.96;100.00;101855.63;5122126;29;20480;-73
2023/06/06 03:24:19;;;;;;;14.10;10.47;;;;;;;9.95;100.00;101853.91;5122329;29;20040;-74
2023/06/06 03:26:50;;;;;;;16.67;10.77;;;;;;;9.99;100.00;101858.25;5122144;29;20028;-73
2023/06/06 03:29:22;;;;;;;14.00;10.33;;;;;;;9.95;100.00;101851.28;5122196;29;20036;-73
2023/06/06 03:31:53;;;;;;;15.20;10.47;;;;;;;9.93;100.00;101862.53;5122091;29;20047;-73
2023/06/06 03:34:25;;;;;;;13.50;10.37;;;;;;;9.90;100.00;101866.03;5121698;29;20035;-73
2023/06/06 03:36:57;;;;;;;13.15;10.43;;;;;;;9.89;100.00;101855.59;5120767;29;20064;-73
2023/06/06 03:39:28;;;;;;;13.47;10.57;;;;;;;9.90;100.00;101857.31;5121947;29;20075;-72
2023/06/06 03:42:00;;;;;;;15.03;10.07;;;;;;;9.83;100.00;101857.25;5121965;29;20362;-72
2023/06/06 03:44:31;;;;;;;15.23;10.53;;;;;;;9.85;100.00;101858.16;5105286;29;20039;-73
2023/06/06 03:47:03;;;;;;;14.20;10.73;;;;;;;9.85;100.00;101858.16;5122175;29;20115;-73
2023/06/06 03:49:36;;;;;;;15.40;9.73;;;;;;;9.89;100.00;101861.66;5121991;29;20043;-74
2023/06/06 03:52:08;;;;;;;14.27;10.00;;;;;;;9.92;100.00;101864.28;5122028;29;20025;-74
2023/06/06 03:54:39;;;;;;;14.47;9.70;;;;;;;9.89;100.00;101868.59;5120308;29;20039;-74
2023/06/06 03:57:11;;;;;;;13.63;9.63;;;;;;;10.00;100.00;101862.59;5121556;29;20493;-74
2023/06/06 03:59:42;;;;;;;18.77;10.13;;;;;;;9.94;100.00;101864.31;5121286;29;20081;-73
2023/06/06 04:02:13;;;;;;;14.20;9.90;;;;;;;9.87;100.00;101868.59;5121545;29;20032;-73
2023/06/06 04:04:45;;;;;;;13.50;10.67;;;;;;;9.89;100.00;101860.78;5121438;29;20177;-73
2023/06/06 04:07:16;;;;;;;11.93;8.97;;;;;;;9.89;100.00;101868.59;5121282;29;20488;-73
2023/06/06 04:09:48;;;;;;;12.70;9.73;;;;;;;9.91;100.00;101864.28;5121134;29;20063;-74
2023/06/06 04:12:19;;;;;;;14.80;10.27;;;;;;;9.91;100.00;101862.53;5121768;29;20531;-74
2023/06/06 04:14:51;;;;;;;16.77;10.17;;;;;;;9.93;100.00;101870.34;5120027;29;20388;-74
2023/06/06 04:17:26;;;;;;;17.80;9.88;;;;;;;9.96;100.00;101867.78;5121016;29;20067;-73
2023/06/06 04:19:57;;;;;;;12.95;11.20;;;;;;;9.96;100.00;101865.19;5121106;29;20075;-73
2023/06/06 04:22:29;;;;;;;16.13;10.77;;;;;;;9.92;100.00;101864.28;5120953;29;20056;-73
2023/06/06 04:25:00;;;;;;;14.90;10.60;;;;;;;9.86;100.00;101867.69;5121248;29;20119;-73
2023/06/06 04:27:32;;;;;;;19.87;11.13;;;;;;;9.91;100.00;101879.91;5120962;29;20032;-73
2023/06/06 04:30:05;;;;;;;15.93;12.10;;;;;;;9.87;100.00;101868.59;5120859;29;20399;-73
2023/06/06 04:32:39;;;;;;;13.48;10.85;;;;;;;9.88;100.00;101869.47;5120491;29;20436;-73
2023/06/06 04:35:11;;;;;;;13.45;9.77;;;;;;;9.92;100.00;101874.72;5120855;29;20024;-74
2023/06/06 04:37:43;;;;;;;17.35;10.80;;;;;;;9.94;100.00;101872.13;5120822;29;20028;-72
2023/06/06 04:40:15;;;;;;;14.02;10.25;;;;;;;9.89;100.00;101866.88;5121545;29;20444;-73
2023/06/06 04:42:46;;;;;;;18.90;10.85;;;;;;;9.93;100.00;101872.97;5120704;29;20040;-73
2023/06/06 04:45:18;;;;;;;14.03;10.33;;;;;;;10.00;100.00;101874.78;5120678;29;20042;-72
2023/06/06 04:47:49;;;;;;;13.90;10.57;;;;;;;10.04;100.00;101879.13;5120891;29;20115;-72
2023/06/06 04:50:23;;;;;;;15.37;11.30;;;;;;;10.06;100.00;101868.72;5120603;29;20056;-72
2023/06/06 04:52:54;;;;;;;13.95;10.25;;;;;;;10.10;100.00;101860.06;5120692;29;20032;-71
2023/06/06 04:55:27;;;;;;;14.60;10.00;;;;;;;10.13;100.00;101871.38;5120527;29;20084;-72
2023/06/06 04:57:59;;;;;;;11.80;9.45;;;;;;;10.19;100.00;101870.53;5120464;29;20083;-72
2023/06/06 05:00:30;;;;;;;20.33;11.53;;;;;;;10.26;100.00;101869.72;5118902;29;20392;-72
2023/06/06 05:03:03;;;;;;;13.87;10.37;;;;;;;10.26;100.00;101871.47;5120458;29;20067;-72
2023/06/06 05:05:34;;;;;;;13.02;11.07;;;;;;;10.31;100.00;101861.94;5120468;29;20036;-72
2023/06/06 05:08:06;;;;;;;12.80;9.97;;;;;;;10.34;100.00;101864.59;5120440;29;20036;-72
2023/06/06 05:10:39;;;;;;;18.03;10.93;;;;;;;10.42;100.00;101864.59;5120424;29;20103;-72
2023/06/06 05:13:10;;;;;;;15.75;10.57;;;;;;;10.45;100.00;101865.53;5120197;29;20036;-71
2023/06/06 05:15:42;;;;;;;17.63;11.17;;;;;;;10.52;100.00;101869.03;5120439;29;20522;-72
2023/06/06 05:18:13;;;;;;;15.07;10.07;;;;;;;10.61;99.73;101860.34;5120442;29;20031;-72
2023/06/06 05:20:45;;;;;;;18.57;11.50;;;;;;;10.66;99.47;101872.56;5120369;29;20033;-73
2023/06/06 05:23:17;;;;;;;15.30;11.70;;;;;;;10.75;99.27;101876.94;5120737;29;20031;-72
2023/06/06 05:25:48;;;;;;;13.27;10.70;;;;;;;10.70;98.23;101868.22;5120225;29;20040;-72
2023/06/06 05:28:20;;;;;;;15.03;10.60;;;;;;;10.84;98.04;101881.34;5120357;29;20478;-72
2023/06/06 05:30:56;;;;;;;14.50;10.10;;;;;;;10.83;98.01;101882.19;5124074;29;20036;-72
2023/06/06 05:33:27;;;;;;;14.15;11.40;;;;;;;10.91;97.89;101873.50;5124661;29;20040;-72
2023/06/06 05:35:59;;;;;;;15.27;12.07;;;;;;;10.99;97.37;101883.13;5124407;29;20102;-71
2023/06/06 05:38:31;;;;;;;20.70;11.13;;;;;;;11.04;97.28;101873.56;5124261;29;20047;-72
2023/06/06 05:41:02;;;;;;;16.20;11.73;;;;;;;11.11;96.69;101885.78;5124108;29;20028;-72
2023/06/06 05:43:33;;;;;;;13.43;11.00;;;;;;;11.05;96.05;101877.91;5124093;29;20464;-71
2023/06/06 05:46:06;;;;;;;14.40;10.13;;;;;;;11.10;96.19;101890.09;5124116;29;20040;-72
2023/06/06 05:48:38;;;;;;;13.48;11.35;;;;;;;11.25;95.89;101884.06;5122653;29;20074;-71
2023/06/06 05:51:10;;;;;;;14.67;10.23;;;;;;;11.35;95.59;101891.88;5124314;29;20480;-72
2023/06/06 05:53:44;;;;;;;20.02;10.88;;;;;;;11.39;95.10;101889.28;5123808;29;20071;-72
2023/06/06 05:56:18;;;;;;;13.50;10.43;;;;;;;11.49;94.59;101890.16;5122830;29;20324;-72
2023/06/06 05:58:50;;;;;;;16.73;11.15;;;;;;;11.61;94.86;101892.81;5122490;29;20043;-72
2023/06/06 06:01:22;;;;;;;16.37;11.73;;;;;;;11.62;93.88;101896.28;5122095;29;20047;-72
2023/06/06 06:03:54;;;;;;;13.85;10.98;;;;;;;11.66;93.53;101891.06;5124285;29;20460;-73
2023/06/06 06:06:26;;;;;;;16.57;10.77;;;;;;;11.80;93.02;101896.28;5122624;29;20043;-72
2023/06/06 06:09:01;;;;;;;13.95;11.75;;;;;;;11.80;92.46;101887.56;5123551;29;20099;-72
2023/06/06 06:11:32;;;;;;;16.30;12.55;;;;;;;11.80;92.63;101877.13;5123960;29;20032;-71
2023/06/06 06:14:04;;;;;;;16.20;10.70;;;;;;;11.97;92.47;101890.22;5123776;29;20467;-72
2023/06/06 06:16:35;;;;;;;16.40;11.50;;;;;;;12.09;92.07;101897.16;5122866;29;20555;-72
2023/06/06 06:19:06;;;;;;;12.37;10.47;;;;;;;11.99;91.28;101888.47;5122057;29;20039;-72
2023/06/06 06:21:38;;;;;;;17.00;12.07;;;;;;;12.05;91.30;101898.91;5123653;29;20052;-73
2023/06/06 06:24:09;;;;;;;16.57;11.43;;;;;;;12.10;91.01;101902.38;5123364;29;20064;-72
2023/06/06 06:26:41;;;;;;;14.13;10.03;;;;;;;12.18;91.32;101899.78;5122248;29;20025;-72
2023/06/06 06:29:12;;;;;;;15.70;10.97;;;;;;;12.24;90.64;101907.59;5123121;29;20039;-71
2023/06/06 06:31:43;;;;;;;17.40;10.37;;;;;;;12.34;90.45;101905.84;5123256;29;20043;-72
2023/06/06 06:34:15;;;;;;;15.87;11.50;;;;;;;12.46;90.01;101904.94;5123283;29;20068;-72
2023/06/06 06:36:46;;;;;;;14.27;10.53;;;;;;;12.51;89.30;101892.72;5122928;29;20064;-71
2023/06/06 06:39:18;;;;;;;16.93;11.20;;;;;;;12.65;89.21;101896.16;5123071;29;20040;-72
2023/06/06 06:41:52;;;;;;;13.23;10.48;;;;;;;12.71;88.61;101900.50;5121831;29;20024;-72
2023/06/06 06:44:24;;;;;;;12.77;10.43;;;;;;;12.74;88.29;101901.34;5122927;29;20033;-72
2023/06/06 06:46:55;;;;;;;14.50;11.00;;;;;;;12.89;87.80;101904.78;5123311;29;20051;-72
2023/06/06 06:49:27;;;;;;;17.47;11.90;;;;;;;12.91;87.29;101908.25;5122728;29;20036;-72
2023/06/06 06:52:00;;;;;;;13.77;10.40;;;;;;;13.13;87.06;101919.50;5121575;29;20037;-72
2023/06/06 06:54:34;;;;;;;13.88;10.50;;;;;;;13.16;86.58;101923.88;5122893;29;20102;-72
2023/06/06 06:57:06;;;;;;;16.05;10.60;;;;;;;13.32;86.00;101921.16;5122617;29;20486;-72
2023/06/06 06:59:38;;;;;;;19.92;10.95;;;;;;;13.31;84.81;101915.91;5122830;29;20043;-72
2023/06/06 07:02:09;;;;;;;14.90;10.80;;;;;;;13.43;84.66;101920.25;5123039;29;20048;-72
2023/06/06 07:04:41;;;;;;;16.40;11.03;;;;;;;13.62;84.23;101916.63;5122825;29;20115;-72
2023/06/06 07:07:16;;;;;;;19.55;11.25;;;;;;;13.68;84.27;101916.59;5122911;29;20107;-73
2023/06/06 07:09:47;;;;;;;15.95;11.20;;;;;;;13.79;83.38;101913.00;5122603;29;20042;-73
2023/06/06 07:12:22;;;;;;;17.70;10.40;;;;;;;13.76;82.81;101918.25;5122454;29;20032;-72
2023/06/06 07:14:53;;;;;;;12.45;10.18;;;;;;;13.99;82.50;101910.19;5122006;29;20043;-73
2023/06/06 07:17:26;;;;;;;12.63;10.57;;;;;;;14.14;nan;101911.81;5122731;29;20036;-72
2023/06/06 07:19:57;;;;;;;17.08;9.90;;;;;;;14.16;81.74;101912.66;5121023;29;20375;-73
2023/06/06 07:22:29;;;;;;;13.63;10.57;;;;;;;14.20;80.46;101917.00;5122195;29;20036;-72
2023/06/06 07:25:00;;;;;;;12.03;9.40;;;;;;;14.29;80.37;101910.78;5122203;29;20040;-72
2023/06/06 07:27:37;;;;;;;15.57;10.30;;;;;;;14.41;79.93;101911.53;5121484;29;20134;-72
2023/06/06 07:30:12;;;;;;;17.02;10.63;;;;;;;14.33;79.45;101912.47;5121841;29;20035;-72
2023/06/06 07:32:46;;;;;;;15.63;10.65;;;;;;;14.50;80.28;101899.19;5121446;29;20036;-72
2023/06/06 07:35:21;;;;;;;14.68;9.68;;;;;;;14.59;79.38;101907.88;5120160;29;20122;-72
2023/06/06 07:37:52;;;;;;;15.23;10.35;;;;;;;14.75;78.20;101903.31;5121839;29;20035;-72
2023/06/06 07:40:24;;;;;;;17.70;10.77;;;;;;;15.01;77.57;101907.34;5122220;29;20044;-73
2023/06/06 07:42:57;;;;;;;14.03;10.57;;;;;;;15.20;77.83;101894.84;5121870;29;20028;-71
2023/06/06 07:45:28;;;;;;;15.05;9.98;;;;;;;15.36;77.12;101899.84;5121593;29;20039;-72
2023/06/06 07:48:03;;;;;;;16.60;10.90;;;;;;;15.33;75.33;101900.78;5121643;29;20035;-72
2023/06/06 07:50:35;;;;;;;16.23;9.93;;;;;;;15.36;75.95;101894.59;5121506;29;20038;-72
2023/06/06 07:53:06;;;;;;;14.50;10.07;;;;;;;15.21;74.97;101893.94;5120880;29;20342;-72
2023/06/06 07:55:38;;;;;;;10.53;9.50;;;;;;;15.52;76.16;101895.22;5121409;29;20091;-72
2023/06/06 07:58:10;;;;;;;14.55;9.55;;;;;;;15.66;74.61;101883.63;5121070;29;20063;-72
2023/06/06 08:00:44;;;;;;;13.68;9.20;;;;;;;15.84;74.46;101900.88;5121093;29;20452;-72
2023/06/06 08:03:15;;;;;;;17.38;10.68;;;;;;;15.96;72.72;101886.66;5121910;29;20032;-72
2023/06/06 08:05:47;;;;;;;12.63;9.90;;;;;;;16.03;72.90;101884.78;5121471;29;20115;-72
2023/06/06 08:08:18;;;;;;;17.47;10.20;;;;;;;16.07;72.66;101886.47;5121353;29;20044;-71
2023/06/06 08:10:50;;;;;;;12.20;9.40;;;;;;;16.29;72.50;101888.69;5121327;29;20072;-72
2023/06/06 08:13:21;;;;;;;15.57;10.00;;;;;;;16.26;71.22;101879.09;5120578;29;20035;-72
2023/06/06 08:15:52;;;;;;;18.77;10.63;;;;;;;16.43;72.12;101886.66;5121443;29;20043;-72
2023/06/06 08:18:24;;;;;;;14.07;9.77;;;;;;;16.64;71.78;101892.41;5121275;29;20021;-72
2023/06/06 08:20:55;;;;;;;14.80;8.60;;;;;;;16.83;70.85;101898.16;5121163;29;20119;-72
2023/06/06 08:23:27;;;;;;;12.20;10.00;;;;;;;16.95;70.90;101898.78;5120995;29;20111;-72
2023/06/06 08:25:58;;;;;;;13.30;8.90;;;;;;;16.91;69.26;101889.22;5119760;29;20064;-72
2023/06/06 08:28:30;;;;;;;14.40;9.63;;;;;;;17.13;69.21;101894.88;5119828;29;20032;-73
2023/06/06 08:31:03;;;;;;;11.50;8.38;;;;;;;17.22;68.07;101890.28;5120526;29;20052;-72
2023/06/06 08:33:35;;;;;;;10.68;8.52;;;;;;;17.36;68.52;101884.72;5120711;29;20044;-72
2023/06/06 08:36:07;;;;;;;14.47;9.43;;;;;;;17.46;68.39;101886.22;5121009;29;20039;-72
2023/06/06 08:38:38;;;;;;;11.63;8.63;;;;;;;17.63;67.28;101891.09;5120694;29;20073;-72
2023/06/06 08:41:10;;;;;;;12.97;9.33;;;;;;;17.55;66.29;101886.00;5120601;29;20063;-72
2023/06/06 08:43:46;;;;;;;14.68;10.70;;;;;;;17.58;67.16;101885.03;5120516;29;20036;-72
2023/06/06 08:46:17;;;;;;;12.20;9.18;;;;;;;17.68;66.50;101892.69;5120783;29;20032;-72
2023/06/06 08:48:51;;;;;;;19.30;10.00;;;;;;;17.87;66.26;101886.97;5119187;29;20043;-72
2023/06/06 08:51:25;;;;;;;14.13;8.90;;;;;;;18.01;65.02;101890.13;5120727;29;20122;-72
2023/06/06 08:54:01;;;;;;;12.38;8.90;;;;;;;18.25;65.46;101900.09;5120676;29;20034;-72
2023/06/06 08:56:34;;;;;;;14.18;9.18;;;;;;;18.09;63.24;101889.06;5120634;29;20107;-72
2023/06/06 08:59:05;;;;;;;11.85;8.63;;;;;;;18.30;63.93;101875.28;5120851;29;20044;-72
2023/06/06 09:01:40;;;;;;;12.53;10.00;;;;;;;18.49;64.02;101877.41;5120456;29;20095;-72
2023/06/06 09:04:15;;;;;;;10.85;8.70;;;;;;;18.45;62.59;101876.66;5119749;29;20044;-72
2023/06/06 09:06:46;;;;;;;12.20;8.90;;;;;;;18.59;62.63;101889.44;5120582;29;20066;-72
2023/06/06 09:09:19;;;;;;;11.57;9.00;;;;;;;18.90;63.09;101878.00;5121279;29;20076;-72
2023/06/06 09:11:51;;;;;;;14.68;9.13;;;;;;;19.00;61.32;101879.47;5120703;29;20051;-72
2023/06/06 09:14:22;;;;;;;13.13;9.20;;;;;;;19.09;61.02;101879.19;5120064;29;20028;-72
2023/06/06 09:16:54;;;;;;;13.93;8.47;;;;;;;19.18;60.13;101880.66;5120743;29;20044;-72
2023/06/06 09:19:26;;;;;;;10.60;8.85;;;;;;;19.17;60.29;101875.41;5120853;29;20035;-72
2023/06/06 09:21:59;;;;;;;12.95;7.93;;;;;;;19.17;59.27;101880.72;5120518;29;20115;-72
2023/06/06 09:24:30;;;;;;;12.73;8.93;;;;;;;19.05;59.35;101876.69;5120517;29;20527;-73
2023/06/06 09:27:02;;;;;;;12.87;8.87;;;;;;;19.32;60.44;101874.94;5119588;29;20063;-72
2023/06/06 09:29:39;;;;;;;11.40;7.53;;;;;;;19.35;59.98;101872.19;5120248;29;20088;-72
2023/06/06 09:32:11;;;;;;;12.73;9.38;;;;;;;19.51;59.41;101875.19;5119132;29;20067;-72
2023/06/06 09:34:44;;;;;;;11.57;8.60;;;;;;;19.68;58.77;101870.22;5120726;29;20043;-72
2023/06/06 09:37:15;;;;;;;15.38;8.90;;;;;;;19.89;57.79;101870.44;5120509;29;20412;-72
2023/06/06 09:40:18;;;;;;;12.37;8.63;;;;;;;20.10;58.30;101863.50;5103128;29;20064;-72
2023/06/06 09:42:50;;;;;;;12.13;8.63;;;;;;;20.09;57.33;101866.22;5103876;29;20134;-72
2023/06/06 09:45:21;;;;;;;13.70;9.53;;;;;;;20.23;57.54;101866.59;5120191;29;20057;-72
2023/06/06 09:47:53;;;;;;;10.83;7.53;;;;;;;20.49;55.42;101864.78;5120536;29;20036;-72
2023/06/06 09:50:25;;;;;;;11.27;8.03;;;;;;;20.79;54.59;101877.81;5120112;29;20172;-73
2023/06/06 09:52:56;;;;;;;12.98;7.28;;;;;;;21.06;55.67;101868.78;5118818;29;20028;-73
2023/06/06 09:55:28;;;;;;;9.17;7.37;;;;;;;20.93;53.14;101864.91;5120291;29;20431;-71
2023/06/06 09:58:01;;;;;;;16.27;8.38;;;;;;;21.12;52.92;101863.25;5118614;29;20509;-73
2023/06/06 10:00:37;;;;;;;10.02;7.32;;;;;;;21.56;52.86;101862.38;5118270;29;20056;-73
2023/06/06 10:03:11;;;;;;;13.20;8.75;;;;;;;21.44;51.33;101865.50;5120127;29;20055;-72
2023/06/06 10:05:43;;;;;;;11.02;7.53;;;;;;;22.36;50.09;101861.59;5119322;29;20123;-73
2023/06/06 10:08:19;;;;;;;13.43;8.07;;;;;;;23.55;47.50;101858.59;5119542;29;20064;-72
2023/06/06 10:10:50;;;;;;;15.43;7.97;;;;;;;24.44;43.44;101850.47;5120367;29;20127;-74
2023/06/06 10:13:22;;;;;;;13.73;8.07;;;;;;;25.01;40.63;101851.81;5120381;29;20064;-73
2023/06/06 10:15:57;;;;;;;;;;;;;;;26.73;38.34;101852.16;5123178;29;20475;-73
2023/06/06 10:18:30;;;;;;;13.95;8.48;;;;;;;25.94;38.47;101850.81;5123597;29;20365;-74
2023/06/06 10:21:03;;;;;;;10.45;7.50;;;;;;;26.04;38.97;101851.13;5123859;29;20106;-74
2023/06/06 10:23:35;;;;;;;11.95;7.88;;;;;;;26.00;38.72;101847.78;5123735;29;20081;-73
2023/06/06 10:26:22;;;;;;;10.43;6.40;;;;;;;26.57;38.85;101849.56;5122240;29;20115;-74
2023/06/06 10:29:01;;;;;;;14.90;7.53;;;;;;;27.09;37.75;101849.84;5123680;29;20456;-74
2023/06/06 10:31:59;;;;;;;10.65;7.15;;;;;;;27.89;36.97;101849.00;5123403;29;20032;-73
2023/06/06 10:34:38;;;;;;;10.02;7.28;;;;;;;28.11;35.93;101845.69;5123620;29;20028;-73
2023/06/06 10:37:17;;;;;;;12.40;6.88;;;;;;;28.48;35.45;101843.94;5123226;29;20048;-74
2023/06/06 10:40:00;;;;;;;14.05;7.20;;;;;;;28.99;34.27;101842.06;5121953;29;20066;-74
2023/06/06 10:42:41;;;;;;;11.50;7.03;;;;;;;29.10;33.96;101842.13;5122220;29;20028;-74
2023/06/06 10:45:12;;;;;;;10.63;6.60;;;;;;;29.77;31.52;101844.22;5122851;29;20502;-74
2023/06/06 10:47:44;;;;;;;;;;;;;;;30.68;32.52;101839.72;5124143;29;20032;-74
2023/06/06 10:50:17;;;;;;;11.38;6.72;;;;;;;29.21;31.64;101839.53;5123045;29;19971;-74
2023/06/06 10:53:01;;;;;;;9.20;6.28;;;;;;;28.61;33.22;101848.44;5122783;29;20038;-74
2023/06/06 10:55:32;;;;;;;8.13;5.90;;;;;;;28.38;34.14;101832.13;5122909;29;20035;-74
2023/06/06 10:58:07;;;;;;;7.43;5.10;;;;;;;29.26;34.31;101839.19;5122745;29;20032;-74
2023/06/06 11:00:46;;;;;;;13.48;5.78;;;;;;;29.74;32.02;101824.78;5123325;29;20087;-75
2023/06/06 11:03:33;;;;;;;9.38;6.50;;;;;;;30.69;31.00;101821.75;5122656;29;20078;-73
2023/06/06 11:06:06;;;;;;;10.57;6.88;;;;;;;30.62;30.28;101826.75;5121711;29;20040;-73
2023/06/06 11:08:58;;;;;;;12.18;6.30;;;;;;;31.41;29.11;101825.66;5122699;29;20032;-72
2023/06/06 11:11:31;;;;;;;12.13;5.90;;;;;;;31.20;30.24;101815.72;5123227;29;20100;-73
2023/06/06 11:14:07;;;;;;;13.23;6.20;;;;;;;31.33;29.29;101822.75;5122791;29;20459;-74
2023/06/06 11:16:43;;;;;;;9.38;6.10;;;;;;;31.09;28.54;101813.09;5122823;29;20551;-74
2023/06/06 11:19:19;;;;;;;10.10;6.15;;;;;;;31.70;29.61;101816.94;5122480;29;20127;-73
2023/06/06 11:22:00;;;;;;;9.55;5.40;;;;;;;33.04;27.20;101813.97;5122666;29;20035;-74
2023/06/06 11:24:35;;;;;;;9.55;6.03;;;;;;;31.96;27.43;101815.50;5122571;29;20107;-73
2023/06/06 11:27:09;;;;;;;9.63;5.63;;;;;;;32.03;27.08;101814.97;5121919;29;20045;-73
2023/06/06 11:29:41;;;;;;;7.78;5.20;;;;;;;32.21;27.54;101807.97;5122186;29;20067;-73
2023/06/06 11:32:13;;;;;;;12.00;7.25;;;;;;;32.26;26.71;101819.19;5122053;29;20119;-72
2023/06/06 11:34:45;;;;;;;9.15;6.18;;;;;;;32.11;26.87;101805.25;5122716;29;20460;-73
2023/06/06 11:37:16;;;;;;;10.13;5.43;;;;;;;32.50;27.14;101802.66;5122141;29;20036;-73
2023/06/06 11:39:49;;;;;;;11.27;5.70;;;;;;;31.00;27.79;101795.84;5121806;29;20111;-73
2023/06/06 11:42:20;;;;;;;11.38;5.93;;;;;;;30.43;29.03;101799.66;5122704;29;20048;-74
2023/06/06 11:44:52;;;;;;;7.63;5.65;;;;;;;32.25;27.37;101798.63;5121989;29;20040;-73
2023/06/06 11:47:33;;;;;;;8.55;5.65;;;;;;;32.93;28.05;101808.72;5122310;29;20214;-73
2023/06/06 11:50:05;;;;;;;12.20;5.13;;;;;;;33.75;25.73;101809.22;5121954;29;20478;-73
2023/06/06 11:52:50;;;;;;;10.55;5.30;;;;;;;33.88;25.33;101809.75;5121945;29;20024;-73
2023/06/06 11:55:35;;;;;;;11.75;6.13;;;;;;;33.58;26.04;101802.69;5121741;29;20156;-73
2023/06/06 11:58:08;;;;;;;10.15;4.70;;;;;;;33.66;24.77;101800.09;5121846;29;20070;-72
2023/06/06 12:00:40;;;;;;;12.50;5.40;;;;;;;34.15;24.59;101802.66;5121623;29;20040;-74
2023/06/06 12:03:14;;;;;;;8.40;5.55;;;;;;;34.15;24.86;101805.38;5122768;29;20463;-73
2023/06/06 12:05:59;;;;;;;9.05;4.80;;;;;;;34.90;23.35;101798.94;5121592;29;20032;-73
2023/06/06 12:08:33;;;;;;;9.93;4.35;;;;;;;35.32;22.94;101791.00;5121914;29;20031;-73
2023/06/06 12:11:24;;;;;;;7.25;4.38;;;;;;;36.78;21.60;101782.03;5121453;29;20028;-73
2023/06/06 12:13:57;;;;;;;8.23;4.80;;;;;;;35.31;22.19;101786.63;5121403;29;20020;-74